createdAt,value
2023-07-24T00:01:51.826Z,99971.25
2023-07-24T00:08:34.195Z,99970.56
2023-07-24T00:15:16.647Z,99974.41
2023-07-24T00:21:58.919Z,99962.41
2023-07-24T00:28:41.397Z,99965.53
2023-07-24T00:35:24.222Z,99957.19
2023-07-24T00:42:07.284Z,99954.94
2023-07-24T00:48:50.095Z,99940.44
2023-07-24T00:55:32.816Z,99961.31
2023-07-24T01:02:15.166Z,99959.09
2023-07-24T01:08:57.459Z,99959.38
2023-07-24T01:15:51.961Z,99950.91
2023-07-24T01:22:49.487Z,99937.94
2023-07-24T01:29:31.873Z,99936.47
2023-07-24T01:36:15.841Z,99933.25
2023-07-24T01:43:00.792Z,99917.59
2023-07-24T01:49:43.112Z,99920.47
2023-07-24T01:56:25.319Z,99918.03
2023-07-24T02:03:07.982Z,99918.13
2023-07-24T02:09:51.164Z,99914.53
2023-07-24T02:16:33.931Z,99908.19
2023-07-24T02:23:16.813Z,99909.22
2023-07-24T02:29:59.417Z,99914.47
2023-07-24T02:36:42.574Z,99902.06
2023-07-24T02:43:25.216Z,99900.34
2023-07-24T02:50:08.028Z,99907.34
2023-07-24T02:56:50.285Z,99886.13
2023-07-24T03:03:32.728Z,99887.00
2023-07-24T03:10:15.195Z,99903.75
2023-07-24T03:16:57.454Z,99906.97
2023-07-24T03:23:39.740Z,99910.09
2023-07-24T03:30:22.350Z,99897.13
2023-07-24T03:37:05.176Z,99900.88
2023-07-24T03:43:47.380Z,99892.28
2023-07-24T03:50:30.821Z,99883.75
2023-07-24T03:57:13.226Z,99886.69
2023-07-24T04:03:56.227Z,99904.78
2023-07-24T04:10:38.514Z,99907.97
2023-07-24T04:17:20.941Z,99905.84
2023-07-24T04:24:03.830Z,99901.75
2023-07-24T04:30:46.110Z,99906.38
2023-07-24T04:37:28.664Z,99898.47
2023-07-24T04:44:10.867Z,99899.44
2023-07-24T04:50:57.264Z,99882.59
2023-07-24T04:57:39.454Z,99885.16
2023-07-24T05:04:21.739Z,99887.78
2023-07-24T05:11:04.104Z,99897.59
2023-07-24T05:17:46.447Z,99887.28
2023-07-24T05:24:31.854Z,99890.16
2023-07-24T05:31:14.145Z,99900.16
2023-07-24T05:37:56.653Z,99904.81
2023-07-24T05:44:39.216Z,99913.00
2023-07-24T05:51:21.505Z,99910.56
2023-07-24T05:58:03.804Z,99908.00
2023-07-24T06:04:46.115Z,99899.25
2023-07-24T06:11:28.572Z,99902.09
2023-07-24T06:18:14.187Z,99896.34
2023-07-24T06:24:56.500Z,99890.75
2023-07-24T06:31:38.950Z,99894.91
2023-07-24T06:38:22.893Z,99888.22
2023-07-24T06:45:08.416Z,99901.72
2023-07-24T06:51:50.974Z,99896.84
2023-07-24T06:58:36.227Z,99902.66
2023-07-24T07:05:18.588Z,99902.88
2023-07-24T07:12:01.090Z,99902.75
2023-07-24T07:18:43.350Z,99894.91
2023-07-24T07:25:25.595Z,99900.44
2023-07-24T07:32:08.569Z,99896.13
2023-07-24T07:38:51.726Z,99900.09
2023-07-24T07:45:37.356Z,99882.97
2023-07-24T07:52:21.559Z,99885.66
2023-07-24T07:59:03.808Z,99877.88
2023-07-24T08:05:46.051Z,99883.28
2023-07-24T08:12:28.373Z,99874.97
2023-07-24T08:19:13.664Z,99866.38
2023-07-24T08:26:00.728Z,99857.91
2023-07-24T08:32:43.250Z,99848.47
2023-07-24T08:39:25.828Z,99844.75
2023-07-24T08:46:12.005Z,99831.66
2023-07-24T08:52:54.851Z,99819.63
2023-07-24T08:59:37.228Z,99813.13
2023-07-24T09:06:19.523Z,99801.38
2023-07-24T09:13:05.102Z,99795.84
2023-07-24T09:19:56.314Z,99791.03
2023-07-24T09:26:57.771Z,99781.75
2023-07-24T09:33:42.383Z,99774.19
2023-07-24T09:40:25.148Z,99764.81
2023-07-24T09:47:32.247Z,99759.75
2023-07-24T09:54:33.813Z,99750.34
2023-07-24T10:01:18.250Z,99733.34
2023-07-24T10:08:01.643Z,99730.38
2023-07-24T10:14:45.007Z,99718.97
2023-07-24T10:21:30.695Z,99710.50
2023-07-24T10:28:17.317Z,99702.31
2023-07-24T10:35:13.159Z,99695.25
2023-07-24T10:42:08.765Z,99685.88
2023-07-24T10:48:52.869Z,99685.66
2023-07-24T10:55:35.301Z,99667.41
2023-07-24T11:02:18.713Z,99666.25
2023-07-24T11:09:01.516Z,99663.53
2023-07-24T11:15:44.433Z,99665.09
2023-07-24T11:22:28.059Z,99652.00
2023-07-24T11:29:14.538Z,99668.16
2023-07-24T11:35:57.233Z,99680.47
2023-07-24T11:42:43.662Z,99664.69
2023-07-24T11:49:26.024Z,99665.75
2023-07-24T11:56:17.190Z,99669.59
2023-07-24T12:03:06.004Z,99666.31
2023-07-24T12:09:53.806Z,99665.25
2023-07-24T12:16:38.031Z,99650.53
2023-07-24T12:23:20.502Z,99640.81
2023-07-24T12:30:03.921Z,99631.53
2023-07-24T12:36:52.002Z,99626.38
2023-07-24T12:43:34.861Z,99641.41
2023-07-24T12:50:19.174Z,99625.91
2023-07-24T12:57:03.450Z,99623.88
2023-07-24T13:03:46.243Z,99609.94
2023-07-24T13:10:29.510Z,99584.59
2023-07-24T13:17:15.319Z,99572.63
2023-07-24T13:23:57.932Z,99559.06
2023-07-24T13:30:40.502Z,99547.94
2023-07-24T13:37:25.367Z,99537.31
2023-07-24T13:44:07.972Z,99522.72
2023-07-24T13:50:51.765Z,99527.59
2023-07-24T13:57:36.551Z,99521.28
2023-07-24T14:04:19.444Z,99528.88
2023-07-24T14:11:03.594Z,99536.06
2023-07-24T14:17:46.194Z,99520.50
2023-07-24T14:24:28.677Z,99511.69
2023-07-24T14:31:11.016Z,99513.84
2023-07-24T14:37:53.451Z,99503.16
2023-07-24T14:44:36.323Z,99478.16
2023-07-24T14:51:18.475Z,99468.19
2023-07-24T14:58:01.804Z,99465.97
2023-07-24T15:04:44.141Z,99456.69
2023-07-24T15:11:26.758Z,99446.38
2023-07-24T15:18:09.485Z,99430.28
2023-07-24T15:24:51.802Z,99414.00
2023-07-24T15:31:38.215Z,99409.19
2023-07-24T15:38:20.851Z,99403.25
2023-07-24T15:45:04.587Z,99387.06
2023-07-24T15:51:49.289Z,99389.56
2023-07-24T15:58:34.398Z,99375.03
2023-07-24T16:05:22.517Z,99355.88
2023-07-24T16:12:08.208Z,99351.28
2023-07-24T16:19:17.930Z,99344.47
2023-07-24T16:26:00.487Z,99339.59
2023-07-24T16:39:31.969Z,99326.06
2023-07-24T16:53:00.215Z,99295.94
2023-07-24T16:59:42.760Z,99284.91
2023-07-24T17:06:25.355Z,99260.28
2023-07-24T17:13:07.721Z,99263.84
2023-07-24T17:19:50.572Z,99263.25
2023-07-24T17:26:35.651Z,99242.00
2023-07-24T17:33:18.476Z,99242.63
2023-07-24T17:40:02.326Z,99410.31
2023-07-24T17:46:45.353Z,99423.31
2023-07-24T17:53:28.050Z,99449.09
2023-07-24T18:00:11.260Z,99467.41
2023-07-24T18:06:53.998Z,99449.84
2023-07-24T18:13:36.348Z,99445.56
2023-07-24T18:20:18.802Z,99442.44
2023-07-24T18:27:04.160Z,99421.19
2023-07-24T18:33:46.505Z,99390.44
2023-07-24T18:40:28.853Z,99373.91
2023-07-24T18:47:11.626Z,99380.09
2023-07-24T18:53:53.935Z,99348.88
2023-07-24T19:00:37.485Z,99315.34
2023-07-24T19:07:22.886Z,99333.34
2023-07-24T19:14:05.163Z,99312.22
2023-07-24T19:20:47.537Z,99296.44
2023-07-24T19:27:30.747Z,99301.13
2023-07-24T19:34:13.208Z,99287.41
2023-07-24T19:40:59.413Z,99299.66
2023-07-24T19:47:41.991Z,99290.56
2023-07-24T19:54:32.722Z,99265.31
2023-07-24T20:01:15.142Z,99281.84
2023-07-24T20:07:57.647Z,99314.25
2023-07-24T20:14:40.052Z,99329.19
2023-07-24T20:21:23.158Z,99342.44
2023-07-24T20:28:09.459Z,99355.81
2023-07-24T20:34:51.830Z,99353.72
2023-07-24T20:41:35.579Z,99334.91
2023-07-24T20:48:18.962Z,99324.31
2023-07-24T20:55:01.579Z,99336.13
2023-07-24T21:01:44.063Z,99310.97
2023-07-24T21:08:26.595Z,99323.59
2023-07-24T21:15:10.175Z,99309.41
2023-07-24T21:21:52.582Z,99325.44
2023-07-24T21:28:35.457Z,99312.06
2023-07-24T21:35:20.190Z,99312.22
2023-07-24T21:42:06.064Z,99303.09
2023-07-24T21:48:48.863Z,99303.09
2023-07-24T21:55:31.304Z,99306.13
2023-07-24T22:02:13.854Z,99302.63
2023-07-24T22:08:56.201Z,99284.03
2023-07-24T22:15:40.430Z,99295.75
2023-07-24T22:22:23.583Z,99272.72
2023-07-24T22:29:05.911Z,99248.06
2023-07-24T22:35:48.507Z,99260.53
2023-07-24T22:42:30.864Z,99225.13
2023-07-24T22:49:13.530Z,99217.09
2023-07-24T22:55:55.784Z,99189.75
2023-07-24T23:02:38.814Z,99185.41
2023-07-24T23:09:21.207Z,99177.50
2023-07-24T23:16:03.809Z,99208.13
2023-07-24T23:22:46.340Z,99232.91
2023-07-24T23:29:28.652Z,99236.91
2023-07-24T23:36:11.237Z,99241.63
2023-07-24T23:42:53.721Z,99212.75
2023-07-24T23:49:36.191Z,99214.81
2023-07-24T23:56:21.647Z,99224.03
